createdAt,value
2024-03-22T00:00:17.369Z,153.094191
2024-03-22T00:05:16.480Z,127.207834
2024-03-22T00:10:16.414Z,142.110807
2024-03-22T00:15:16.424Z,127.946255
2024-03-22T00:20:16.723Z,96.430382
2024-03-22T00:25:16.369Z,80.106112
2024-03-22T00:30:15.975Z,75.628655
2024-03-22T00:35:17.095Z,67.963301
2024-03-22T00:40:15.907Z,61.909342
2024-03-22T00:45:17.279Z,42.322921
2024-03-22T00:50:15.954Z,32.078407
2024-03-22T00:55:16.136Z,28.701995
2024-03-22T01:00:16.522Z,30.057410
2024-03-22T01:05:16.513Z,31.001368
2024-03-22T01:10:16.782Z,23.985638
2024-03-22T01:15:16.380Z,22.126196
2024-03-22T01:20:16.160Z,25.050901
2024-03-22T01:25:16.120Z,21.599902
2024-03-22T01:30:16.353Z,23.723289
2024-03-22T01:35:16.902Z,23.378227
2024-03-22T01:40:16.893Z,20.040120
2024-03-22T01:45:16.127Z,15.393906
2024-03-22T01:50:15.761Z,10.293196
2024-03-22T01:55:16.257Z,7.484244
2024-03-22T02:00:16.525Z,4.916698
2024-03-22T02:05:16.555Z,3.024006
2024-03-22T02:10:15.905Z,3.066532
2024-03-22T02:15:16.054Z,2.229000
2024-03-22T02:20:15.802Z,1.241764
2024-03-22T02:25:16.266Z,0.687678
2024-03-22T02:30:16.243Z,0.290052
2024-03-22T02:35:15.836Z,0.167912
2024-03-22T02:40:15.834Z,0.110845
2024-03-22T02:45:16.507Z,0.056548
2024-03-22T02:50:15.820Z,0.075825
2024-03-22T02:55:16.090Z,0.078092
2024-03-22T03:00:15.984Z,0.060096
2024-03-22T03:05:15.978Z,0.078912
2024-03-22T03:10:15.943Z,0.056692
2024-03-22T03:15:15.774Z,0.084695
2024-03-22T03:20:16.124Z,0.087345
2024-03-22T03:25:16.147Z,0.072467
2024-03-22T03:30:16.279Z,0.063186
2024-03-22T03:35:16.919Z,0.055420
2024-03-22T03:40:16.125Z,0.059954
2024-03-22T03:45:16.224Z,0.065649
2024-03-22T03:50:16.083Z,0.066913
2024-03-22T03:55:16.059Z,0.090841
2024-03-22T04:00:15.735Z,0.046026
2024-03-22T04:05:16.976Z,0.066288
2024-03-22T04:10:16.855Z,0.068380
2024-03-22T04:15:16.607Z,0.093588
2024-03-22T04:20:16.178Z,0.061881
2024-03-22T04:25:15.690Z,0.059151
2024-03-22T04:30:16.939Z,0.081150
2024-03-22T04:35:16.203Z,0.065372
2024-03-22T04:40:15.850Z,0.079926
2024-03-22T04:45:15.883Z,0.079810
2024-03-22T04:50:16.351Z,0.074212
2024-03-22T04:55:16.087Z,0.102379
2024-03-22T05:00:16.800Z,0.064685
2024-03-22T05:05:17.182Z,0.048399
2024-03-22T05:10:16.245Z,0.061213
2024-03-22T05:15:15.979Z,0.056681
2024-03-22T05:20:16.721Z,0.076649
2024-03-22T05:25:16.476Z,0.062454
2024-03-22T05:30:16.101Z,0.065751
2024-03-22T05:35:16.691Z,0.059559
2024-03-22T05:40:16.003Z,0.057993
2024-03-22T05:45:16.281Z,0.067282
2024-03-22T05:50:16.672Z,0.076013
2024-03-22T05:55:15.723Z,0.083541
2024-03-22T06:00:16.242Z,0.076649
2024-03-22T06:05:16.407Z,0.054751
2024-03-22T06:10:15.882Z,0.065372
2024-03-22T06:15:16.103Z,0.090989
2024-03-22T06:20:16.299Z,0.087979
2024-03-22T06:25:16.645Z,0.068986
2024-03-22T06:30:16.234Z,0.082529
2024-03-22T06:35:17.126Z,0.076827
2024-03-22T06:40:15.892Z,0.047610
2024-03-22T06:45:16.406Z,0.078068
2024-03-22T06:50:16.254Z,0.088763
2024-03-22T06:55:15.880Z,0.065423
2024-03-22T07:00:16.846Z,0.076725
2024-03-22T07:05:16.002Z,0.046733
2024-03-22T07:10:15.984Z,0.090630
2024-03-22T07:15:15.772Z,0.084102
2024-03-22T07:20:15.986Z,0.066915
2024-03-22T07:25:16.185Z,0.081049
2024-03-22T07:30:16.074Z,0.074943
2024-03-22T07:35:16.779Z,0.088389
2024-03-22T07:40:16.516Z,0.093647
2024-03-22T07:45:15.940Z,0.075937
2024-03-22T07:50:16.940Z,0.067748
2024-03-22T07:55:17.160Z,0.081174
2024-03-22T08:00:15.995Z,0.085900
2024-03-22T08:05:15.848Z,0.065905
2024-03-22T08:10:16.635Z,0.073213
2024-03-22T08:15:16.137Z,0.096781
2024-03-22T08:20:16.581Z,0.095161
2024-03-22T08:25:16.309Z,0.096685
2024-03-22T08:30:15.761Z,0.068018
2024-03-22T08:35:15.781Z,0.068568
2024-03-22T08:40:15.806Z,0.056949
2024-03-22T08:45:15.854Z,0.052024
2024-03-22T08:50:15.863Z,0.071123
2024-03-22T08:55:16.176Z,0.054414
2024-03-22T09:00:17.088Z,0.087960
2024-03-22T09:05:15.950Z,0.070120
2024-03-22T09:10:15.905Z,0.090605
2024-03-22T09:15:16.090Z,0.070194
2024-03-22T09:20:16.011Z,0.089547
2024-03-22T09:25:15.986Z,0.063038
2024-03-22T09:30:15.898Z,0.084508
2024-03-22T09:35:16.108Z,0.078068
2024-03-22T09:40:17.009Z,0.083691
2024-03-22T09:45:16.696Z,0.059088
2024-03-22T09:50:15.882Z,0.092702
2024-03-22T09:55:16.195Z,0.075118
2024-03-22T10:00:15.866Z,0.102535
2024-03-22T10:05:16.887Z,0.087549
2024-03-22T10:10:15.867Z,0.080485
2024-03-22T10:15:17.017Z,0.098903
2024-03-22T10:20:16.645Z,0.079057
2024-03-22T10:25:17.087Z,0.075118
2024-03-22T10:30:16.278Z,0.065674
2024-03-22T10:35:16.205Z,0.069652
2024-03-22T10:40:15.812Z,0.068303
2024-03-22T10:45:16.028Z,0.065973
2024-03-22T10:50:16.710Z,0.087798
2024-03-22T10:55:17.454Z,0.082468
2024-03-22T11:00:15.732Z,0.085099
2024-03-22T11:05:15.769Z,0.073042
2024-03-22T11:10:16.854Z,0.078875
2024-03-22T11:15:16.194Z,0.076999
2024-03-22T11:20:15.848Z,0.092150
2024-03-22T11:25:16.847Z,0.098143
2024-03-22T11:30:15.764Z,0.086738
2024-03-22T11:35:16.931Z,0.078614
2024-03-22T11:40:15.926Z,0.096205
2024-03-22T11:45:15.877Z,0.086538
2024-03-22T11:50:16.552Z,0.082000
2024-03-22T11:55:16.220Z,0.062167
2024-03-22T12:00:28.125Z,0.053286
2024-03-22T12:05:16.302Z,0.086940
2024-03-22T12:10:16.627Z,0.082853
2024-03-22T12:15:15.884Z,0.096526
2024-03-22T12:20:16.677Z,0.107059
2024-03-22T12:25:16.123Z,0.075825
2024-03-22T12:30:16.330Z,0.090477
2024-03-22T12:35:17.849Z,0.071628
2024-03-22T12:40:16.093Z,0.077012
2024-03-22T12:45:16.693Z,0.083633
2024-03-22T12:50:16.537Z,0.073868
2024-03-22T12:55:16.725Z,0.079057
2024-03-22T13:00:15.761Z,0.077974
2024-03-22T13:05:16.100Z,0.051302
2024-03-22T13:10:15.737Z,0.057199
2024-03-22T13:15:17.787Z,0.069516
2024-03-22T13:20:15.850Z,0.065550
2024-03-22T13:25:16.843Z,0.043470
2024-03-22T13:30:16.926Z,0.072702
2024-03-22T13:35:16.350Z,0.042876
2024-03-22T13:40:16.790Z,0.055290
2024-03-22T13:45:16.760Z,0.077654
2024-03-22T13:50:15.868Z,0.079916
2024-03-22T13:55:17.201Z,0.103262
2024-03-22T14:00:15.688Z,0.150236
2024-03-22T14:05:16.566Z,0.198428
2024-03-22T14:10:16.419Z,0.394539
2024-03-22T14:15:15.920Z,0.956830
2024-03-22T14:20:15.892Z,1.730866
2024-03-22T14:25:16.326Z,2.935514
2024-03-22T14:30:16.037Z,4.595900
2024-03-22T14:35:15.892Z,7.157608
2024-03-22T14:40:16.427Z,9.967822
2024-03-22T14:45:16.333Z,13.942196
2024-03-22T14:50:16.820Z,17.468955
2024-03-22T14:55:15.906Z,19.216786
2024-03-22T15:00:16.161Z,24.402132
2024-03-22T15:05:15.843Z,29.797063
2024-03-22T15:10:15.883Z,29.726836
2024-03-22T15:15:17.240Z,28.200441
2024-03-22T15:20:16.162Z,28.544964
2024-03-22T15:25:17.305Z,32.750712
2024-03-22T15:30:16.110Z,36.598024
2024-03-22T15:35:16.074Z,38.056618
2024-03-22T15:40:16.085Z,40.215290
2024-03-22T15:45:16.247Z,40.537271
2024-03-22T15:50:16.086Z,41.143488
2024-03-22T15:55:16.130Z,46.542053
2024-03-22T16:00:16.951Z,50.210684
2024-03-22T16:05:15.856Z,49.176204
2024-03-22T16:10:16.204Z,50.933708
2024-03-22T16:15:15.696Z,49.395547
2024-03-22T16:20:15.994Z,47.359358
2024-03-22T16:25:16.794Z,51.374424
2024-03-22T16:30:16.076Z,57.936950
2024-03-22T16:35:16.391Z,58.173024
2024-03-22T16:40:15.847Z,57.187429
2024-03-22T16:45:16.598Z,59.183010
2024-03-22T16:50:15.778Z,59.337569
2024-03-22T16:55:17.035Z,57.463615
2024-03-22T17:00:15.724Z,54.635027
2024-03-22T17:05:16.262Z,51.891693
2024-03-22T17:10:15.864Z,57.160587
2024-03-22T17:15:16.139Z,59.077778
2024-03-22T17:20:16.138Z,59.768941
2024-03-22T17:25:15.986Z,67.719991
2024-03-22T17:30:15.946Z,79.769557
2024-03-22T17:35:16.507Z,88.140572
2024-03-22T17:40:16.744Z,95.533596
2024-03-22T17:45:16.174Z,96.938194
2024-03-22T17:50:15.761Z,102.759707
2024-03-22T17:55:17.343Z,110.998394
2024-03-22T18:00:16.027Z,100.697213
2024-03-22T18:05:16.206Z,86.445448
2024-03-22T18:10:17.440Z,101.824806
2024-03-22T18:15:15.795Z,133.762673
2024-03-22T18:20:17.195Z,143.746528
2024-03-22T18:25:17.093Z,142.097743
2024-03-22T18:30:16.173Z,135.962030
2024-03-22T18:35:16.342Z,131.898035
2024-03-22T18:40:16.127Z,117.418879
2024-03-22T18:45:15.863Z,105.248277
2024-03-22T18:50:17.176Z,115.881885
2024-03-22T18:55:16.460Z,123.998011
2024-03-22T19:00:16.459Z,134.571643
2024-03-22T19:05:16.259Z,150.161437
2024-03-22T19:10:16.808Z,166.594725
2024-03-22T19:15:15.807Z,170.554842
2024-03-22T19:20:16.017Z,150.112685
2024-03-22T19:25:15.912Z,125.657970
2024-03-22T19:30:16.088Z,119.088275
2024-03-22T19:35:15.904Z,114.942007
2024-03-22T19:40:16.624Z,105.850574
2024-03-22T19:45:16.840Z,111.994656
2024-03-22T19:50:15.984Z,128.401686
2024-03-22T19:55:15.994Z,129.689488
2024-03-22T20:00:15.749Z,130.561878
2024-03-22T20:05:16.448Z,132.884651
2024-03-22T20:10:16.063Z,139.856739
2024-03-22T20:15:16.417Z,127.895187
2024-03-22T20:20:15.744Z,117.722045
2024-03-22T20:25:16.092Z,105.898280
2024-03-22T20:30:17.558Z,91.207553
2024-03-22T20:35:17.356Z,88.841584
2024-03-22T20:40:17.260Z,93.439980
2024-03-22T20:45:16.068Z,96.014165
2024-03-22T20:50:15.896Z,102.226109
2024-03-22T20:55:15.939Z,123.042052
2024-03-22T21:00:17.394Z,141.837996
2024-03-22T21:05:16.013Z,132.557688
2024-03-22T21:10:18.174Z,114.390861
2024-03-22T21:15:16.699Z,104.189829
2024-03-22T21:20:16.340Z,113.776219
2024-03-22T21:25:16.385Z,120.818715
2024-03-22T21:30:15.970Z,114.832187
2024-03-22T21:35:15.965Z,109.712878
2024-03-22T21:40:16.411Z,105.431953
2024-03-22T21:45:15.889Z,108.343470
2024-03-22T21:50:16.494Z,99.739713
2024-03-22T21:55:15.985Z,104.504276
2024-03-22T22:00:15.701Z,116.584932
2024-03-22T22:05:16.073Z,118.741843
2024-03-22T22:10:16.462Z,118.400919
2024-03-22T22:15:16.222Z,115.926921
2024-03-22T22:20:15.960Z,145.650066
2024-03-22T22:25:16.395Z,199.496648
2024-03-22T22:30:15.725Z,188.933124
2024-03-22T22:35:16.897Z,161.891957
2024-03-22T22:40:16.058Z,174.707253
2024-03-22T22:45:16.019Z,185.957775
2024-03-22T22:50:17.546Z,156.800849
2024-03-22T22:55:16.189Z,148.377479
2024-03-22T23:00:15.748Z,165.792720
2024-03-22T23:05:16.909Z,165.902014
2024-03-22T23:10:15.894Z,155.485884
2024-03-22T23:15:15.885Z,154.297030
2024-03-22T23:20:16.491Z,146.466760
2024-03-22T23:25:15.767Z,136.154842
2024-03-22T23:30:15.822Z,134.710591
2024-03-22T23:35:16.070Z,145.394621
2024-03-22T23:40:15.787Z,142.894700
2024-03-22T23:45:16.213Z,127.076114
2024-03-22T23:50:15.944Z,114.835495
2024-03-22T23:55:16.985Z,108.512610
